sensor_id;sensor_type;location;lat;lon;timestamp;pressure;altitude;pressure_sealevel;temperature;humidity
6096;BME280;25081;42.698;23.298;2023-07-20T00:01:07;94888.16;;;23.47;60.35
6096;BME280;25081;42.698;23.298;2023-07-20T00:03:35;94890.83;;;23.24;60.90
6096;BME280;25081;42.698;23.298;2023-07-20T00:05:46;94892.67;;;23.15;60.23
6096;BME280;25081;42.698;23.298;2023-07-20T00:07:57;94899.99;;;23.17;61.28
6096;BME280;25081;42.698;23.298;2023-07-20T00:10:09;94899.84;;;23.36;60.66
6096;BME280;25081;42.698;23.298;2023-07-20T00:12:19;94898.17;;;23.49;59.96
6096;BME280;25081;42.698;23.298;2023-07-20T00:14:30;94902.11;;;23.42;59.31
6096;BME280;25081;42.698;23.298;2023-07-20T00:16:40;94910.03;;;23.53;59.66
6096;BME280;25081;42.698;23.298;2023-07-20T00:18:51;94906.82;;;23.51;59.84
6096;BME280;25081;42.698;23.298;2023-07-20T00:21:02;94899.04;;;23.47;59.65
6096;BME280;25081;42.698;23.298;2023-07-20T00:23:12;94908.11;;;23.53;59.87
6096;BME280;25081;42.698;23.298;2023-07-20T00:25:23;94906.73;;;23.67;60.26
6096;BME280;25081;42.698;23.298;2023-07-20T00:27:33;94899.48;;;23.62;59.30
6096;BME280;25081;42.698;23.298;2023-07-20T00:29:44;94914.70;;;23.63;59.45
6096;BME280;25081;42.698;23.298;2023-07-20T00:31:55;94909.87;;;23.72;59.32
6096;BME280;25081;42.698;23.298;2023-07-20T00:34:06;94908.51;;;23.83;59.23
6096;BME280;25081;42.698;23.298;2023-07-20T00:36:16;94909.73;;;23.99;58.19
6096;BME280;25081;42.698;23.298;2023-07-20T00:38:27;94907.72;;;23.93;58.18
6096;BME280;25081;42.698;23.298;2023-07-20T00:40:38;94917.61;;;23.89;59.28
6096;BME280;25081;42.698;23.298;2023-07-20T00:42:48;94919.47;;;23.80;58.84
6096;BME280;25081;42.698;23.298;2023-07-20T00:44:59;94909.64;;;23.70;59.39
6096;BME280;25081;42.698;23.298;2023-07-20T00:47:10;94910.27;;;23.67;60.46
6096;BME280;25081;42.698;23.298;2023-07-20T00:49:20;94910.91;;;23.51;60.96
6096;BME280;25081;42.698;23.298;2023-07-20T00:51:31;94912.98;;;23.06;63.19
6096;BME280;25081;42.698;23.298;2023-07-20T00:53:41;94904.25;;;22.82;64.60
6096;BME280;25081;42.698;23.298;2023-07-20T00:55:52;94900.30;;;22.63;64.77
6096;BME280;25081;42.698;23.298;2023-07-20T00:58:02;94897.18;;;22.70;65.15
6096;BME280;25081;42.698;23.298;2023-07-20T01:00:14;94893.59;;;22.72;65.25
6096;BME280;25081;42.698;23.298;2023-07-20T01:02:25;94892.33;;;22.67;65.74
6096;BME280;25081;42.698;23.298;2023-07-20T01:04:35;94896.03;;;22.60;65.75
6096;BME280;25081;42.698;23.298;2023-07-20T01:06:48;94891.73;;;22.56;66.15
6096;BME280;25081;42.698;23.298;2023-07-20T01:09:02;94887.91;;;22.57;65.87
6096;BME280;25081;42.698;23.298;2023-07-20T01:11:13;94894.97;;;22.44;66.13
6096;BME280;25081;42.698;23.298;2023-07-20T01:13:23;94897.84;;;22.50;66.33
6096;BME280;25081;42.698;23.298;2023-07-20T01:15:34;94906.45;;;22.69;65.75
6096;BME280;25081;42.698;23.298;2023-07-20T01:17:45;94905.30;;;22.59;66.63
6096;BME280;25081;42.698;23.298;2023-07-20T01:19:55;94900.56;;;22.50;66.91
6096;BME280;25081;42.698;23.298;2023-07-20T01:22:09;94897.04;;;22.50;67.16
6096;BME280;25081;42.698;23.298;2023-07-20T01:27:10;94896.69;;;22.40;67.04
6096;BME280;25081;42.698;23.298;2023-07-20T01:29:24;94901.04;;;22.39;67.22
6096;BME280;25081;42.698;23.298;2023-07-20T01:31:33;94904.67;;;22.34;66.63
6096;BME280;25081;42.698;23.298;2023-07-20T01:33:44;94907.83;;;22.39;66.69
6096;BME280;25081;42.698;23.298;2023-07-20T01:35:56;94911.41;;;22.64;66.32
6096;BME280;25081;42.698;23.298;2023-07-20T01:38:05;94907.59;;;22.79;65.42
6096;BME280;25081;42.698;23.298;2023-07-20T01:40:16;94908.55;;;22.85;64.86
6096;BME280;25081;42.698;23.298;2023-07-20T01:42:27;94904.16;;;22.87;64.40
6096;BME280;25081;42.698;23.298;2023-07-20T01:44:38;94901.59;;;22.93;64.31
6096;BME280;25081;42.698;23.298;2023-07-20T01:46:49;94900.14;;;22.98;64.22
6096;BME280;25081;42.698;23.298;2023-07-20T01:48:59;94898.11;;;22.76;64.17
6096;BME280;25081;42.698;23.298;2023-07-20T01:51:10;94901.72;;;22.61;65.06
6096;BME280;25081;42.698;23.298;2023-07-20T01:53:20;94900.66;;;22.59;65.15
6096;BME280;25081;42.698;23.298;2023-07-20T01:55:31;94899.98;;;22.65;64.90
6096;BME280;25081;42.698;23.298;2023-07-20T01:57:41;94900.08;;;22.73;65.00
6096;BME280;25081;42.698;23.298;2023-07-20T01:59:52;94906.97;;;22.96;64.08
6096;BME280;25081;42.698;23.298;2023-07-20T02:02:03;94897.50;;;23.07;63.94
6096;BME280;25081;42.698;23.298;2023-07-20T02:04:13;94891.55;;;23.05;63.69
6096;BME280;25081;42.698;23.298;2023-07-20T02:06:24;94892.80;;;23.10;63.65
6096;BME280;25081;42.698;23.298;2023-07-20T02:08:34;94893.08;;;23.45;61.49
6096;BME280;25081;42.698;23.298;2023-07-20T02:10:47;94888.57;;;23.51;61.90
6096;BME280;25081;42.698;23.298;2023-07-20T02:12:58;94887.55;;;23.61;61.49
6096;BME280;25081;42.698;23.298;2023-07-20T02:15:10;94888.33;;;23.39;61.78
6096;BME280;25081;42.698;23.298;2023-07-20T02:17:20;94885.52;;;23.19;62.45
6096;BME280;25081;42.698;23.298;2023-07-20T02:19:31;94885.77;;;22.95;63.63
6096;BME280;25081;42.698;23.298;2023-07-20T02:21:42;94894.81;;;23.04;63.47
6096;BME280;25081;42.698;23.298;2023-07-20T02:23:52;94897.77;;;22.94;63.80
6096;BME280;25081;42.698;23.298;2023-07-20T02:26:02;94894.45;;;22.97;63.89
6096;BME280;25081;42.698;23.298;2023-07-20T02:28:14;94895.05;;;22.94;63.98
6096;BME280;25081;42.698;23.298;2023-07-20T02:30:25;94894.55;;;22.92;64.21
6096;BME280;25081;42.698;23.298;2023-07-20T02:32:36;94891.83;;;22.92;64.27
6096;BME280;25081;42.698;23.298;2023-07-20T02:34:46;94889.05;;;22.95;64.18
6096;BME280;25081;42.698;23.298;2023-07-20T02:36:57;94892.17;;;22.74;64.97
6096;BME280;25081;42.698;23.298;2023-07-20T02:39:07;94879.97;;;22.61;65.53
6096;BME280;25081;42.698;23.298;2023-07-20T02:41:17;94872.34;;;22.74;65.17
6096;BME280;25081;42.698;23.298;2023-07-20T02:43:28;94872.37;;;22.46;65.97
6096;BME280;25081;42.698;23.298;2023-07-20T02:45:41;94867.55;;;22.43;66.20
6096;BME280;25081;42.698;23.298;2023-07-20T02:47:52;94866.98;;;22.16;67.32
6096;BME280;25081;42.698;23.298;2023-07-20T02:50:06;94869.27;;;22.39;66.92
6096;BME280;25081;42.698;23.298;2023-07-20T02:52:14;94863.70;;;22.58;66.37
6096;BME280;25081;42.698;23.298;2023-07-20T02:54:25;94855.87;;;22.43;66.30
6096;BME280;25081;42.698;23.298;2023-07-20T02:56:35;94864.17;;;22.35;66.60
6096;BME280;25081;42.698;23.298;2023-07-20T02:58:46;94869.46;;;22.43;66.86
6096;BME280;25081;42.698;23.298;2023-07-20T03:00:56;94868.05;;;22.45;66.56
6096;BME280;25081;42.698;23.298;2023-07-20T03:03:07;94868.42;;;22.66;66.27
6096;BME280;25081;42.698;23.298;2023-07-20T03:05:18;94870.86;;;22.54;66.32
6096;BME280;25081;42.698;23.298;2023-07-20T03:07:28;94871.42;;;22.53;66.44
6096;BME280;25081;42.698;23.298;2023-07-20T03:09:39;94871.83;;;22.33;67.56
6096;BME280;25081;42.698;23.298;2023-07-20T03:11:49;94865.39;;;22.43;67.31
6096;BME280;25081;42.698;23.298;2023-07-20T03:14:00;94862.81;;;22.35;67.74
6096;BME280;25081;42.698;23.298;2023-07-20T03:16:11;94867.34;;;22.12;68.61
6096;BME280;25081;42.698;23.298;2023-07-20T03:18:21;94878.02;;;22.22;68.64
6096;BME280;25081;42.698;23.298;2023-07-20T03:20:32;94877.16;;;22.24;68.32
6096;BME280;25081;42.698;23.298;2023-07-20T03:22:42;94878.63;;;22.03;69.19
6096;BME280;25081;42.698;23.298;2023-07-20T03:24:53;94881.84;;;22.21;69.04
6096;BME280;25081;42.698;23.298;2023-07-20T03:27:04;94879.23;;;22.30;68.22
6096;BME280;25081;42.698;23.298;2023-07-20T03:29:14;94887.77;;;22.37;67.90
6096;BME280;25081;42.698;23.298;2023-07-20T03:31:25;94891.48;;;22.55;67.34
6096;BME280;25081;42.698;23.298;2023-07-20T03:33:35;94887.16;;;22.26;68.17
6096;BME280;25081;42.698;23.298;2023-07-20T03:35:46;94885.00;;;22.26;68.27
6096;BME280;25081;42.698;23.298;2023-07-20T03:37:56;94880.64;;;22.41;67.94
6096;BME280;25081;42.698;23.298;2023-07-20T03:40:09;94892.97;;;22.50;67.74
6096;BME280;25081;42.698;23.298;2023-07-20T03:42:19;94887.61;;;22.72;67.21
6096;BME280;25081;42.698;23.298;2023-07-20T03:44:30;94888.68;;;22.88;66.88
6096;BME280;25081;42.698;23.298;2023-07-20T03:46:40;94892.58;;;22.81;66.75
6096;BME280;25081;42.698;23.298;2023-07-20T03:48:51;94894.00;;;22.65;67.44
6096;BME280;25081;42.698;23.298;2023-07-20T03:51:02;94889.94;;;22.51;67.90
6096;BME280;25081;42.698;23.298;2023-07-20T03:53:13;94893.05;;;22.45;68.25
6096;BME280;25081;42.698;23.298;2023-07-20T03:55:23;94891.14;;;22.45;68.53
6096;BME280;25081;42.698;23.298;2023-07-20T03:57:34;94893.91;;;22.43;68.44
6096;BME280;25081;42.698;23.298;2023-07-20T03:59:47;94895.08;;;22.39;68.97
6096;BME280;25081;42.698;23.298;2023-07-20T04:01:57;94895.89;;;22.40;68.93
6096;BME280;25081;42.698;23.298;2023-07-20T04:04:08;94896.11;;;22.27;69.03
6096;BME280;25081;42.698;23.298;2023-07-20T04:06:18;94897.08;;;22.20;69.39
6096;BME280;25081;42.698;23.298;2023-07-20T04:08:29;94890.68;;;22.13;69.37
6096;BME280;25081;42.698;23.298;2023-07-20T04:10:42;94885.44;;;22.17;69.47
6096;BME280;25081;42.698;23.298;2023-07-20T04:12:50;94893.61;;;22.44;68.70
6096;BME280;25081;42.698;23.298;2023-07-20T04:15:01;94893.13;;;22.67;67.51
6096;BME280;25081;42.698;23.298;2023-07-20T04:17:11;94886.55;;;22.71;66.65
6096;BME280;25081;42.698;23.298;2023-07-20T04:19:22;94879.22;;;22.44;67.44
6096;BME280;25081;42.698;23.298;2023-07-20T04:21:33;94879.87;;;22.24;68.48
6096;BME280;25081;42.698;23.298;2023-07-20T04:23:43;94867.23;;;22.45;67.99
6096;BME280;25081;42.698;23.298;2023-07-20T04:25:54;94879.23;;;22.82;66.45
6096;BME280;25081;42.698;23.298;2023-07-20T04:28:04;94876.98;;;23.23;65.27
6096;BME280;25081;42.698;23.298;2023-07-20T04:30:16;94868.34;;;23.21;64.97
6096;BME280;25081;42.698;23.298;2023-07-20T04:32:26;94874.65;;;22.94;65.86
6096;BME280;25081;42.698;23.298;2023-07-20T04:34:36;94869.15;;;22.97;66.25
6096;BME280;25081;42.698;23.298;2023-07-20T04:36:47;94871.91;;;23.08;65.89
6096;BME280;25081;42.698;23.298;2023-07-20T04:38:58;94867.69;;;23.02;66.44
6096;BME280;25081;42.698;23.298;2023-07-20T04:41:08;94864.78;;;23.46;65.21
6096;BME280;25081;42.698;23.298;2023-07-20T04:43:19;94857.86;;;23.62;63.72
6096;BME280;25081;42.698;23.298;2023-07-20T04:45:29;94861.45;;;24.22;62.29
6096;BME280;25081;42.698;23.298;2023-07-20T04:47:40;94865.84;;;24.71;60.22
6096;BME280;25081;42.698;23.298;2023-07-20T04:49:50;94857.41;;;25.59;58.10
6096;BME280;25081;42.698;23.298;2023-07-20T04:52:01;94860.94;;;26.09;55.63
6096;BME280;25081;42.698;23.298;2023-07-20T04:54:11;94862.68;;;26.14;55.01
6096;BME280;25081;42.698;23.298;2023-07-20T04:56:22;94861.69;;;26.95;53.18
6096;BME280;25081;42.698;23.298;2023-07-20T04:58:33;94857.52;;;27.18;51.78
6096;BME280;25081;42.698;23.298;2023-07-20T05:00:43;94855.69;;;27.16;51.63
6096;BME280;25081;42.698;23.298;2023-07-20T05:02:54;94851.21;;;27.59;50.52
6096;BME280;25081;42.698;23.298;2023-07-20T05:05:05;94859.52;;;26.79;52.45
6096;BME280;25081;42.698;23.298;2023-07-20T05:07:16;94858.05;;;27.53;50.62
6096;BME280;25081;42.698;23.298;2023-07-20T05:09:27;94849.65;;;28.31;49.05
6096;BME280;25081;42.698;23.298;2023-07-20T05:11:37;94854.44;;;28.34;48.23
6096;BME280;25081;42.698;23.298;2023-07-20T05:13:48;94857.09;;;28.79;47.13
6096;BME280;25081;42.698;23.298;2023-07-20T05:15:58;94862.97;;;29.48;46.27
6096;BME280;25081;42.698;23.298;2023-07-20T05:18:09;94870.95;;;29.47;45.76
6096;BME280;25081;42.698;23.298;2023-07-20T05:20:20;94865.89;;;29.03;46.71
6096;BME280;25081;42.698;23.298;2023-07-20T05:22:31;94872.34;;;29.81;44.85
6096;BME280;25081;42.698;23.298;2023-07-20T05:24:41;94857.81;;;28.12;47.45
6096;BME280;25081;42.698;23.298;2023-07-20T05:26:52;94864.20;;;28.16;48.48
6096;BME280;25081;42.698;23.298;2023-07-20T05:29:03;94868.16;;;29.13;45.97
6096;BME280;25081;42.698;23.298;2023-07-20T05:31:13;94866.36;;;28.68;46.72
6096;BME280;25081;42.698;23.298;2023-07-20T05:33:24;94882.29;;;27.63;48.50
6096;BME280;25081;42.698;23.298;2023-07-20T05:35:34;94876.89;;;27.13;50.12
6096;BME280;25081;42.698;23.298;2023-07-20T05:37:45;94872.62;;;27.03;50.82
6096;BME280;25081;42.698;23.298;2023-07-20T05:39:55;94868.52;;;28.38;48.41
6096;BME280;25081;42.698;23.298;2023-07-20T05:42:07;94872.98;;;29.62;44.91
6096;BME280;25081;42.698;23.298;2023-07-20T05:44:17;94885.25;;;30.21;43.40
6096;BME280;25081;42.698;23.298;2023-07-20T05:46:27;94883.48;;;31.17;41.55
6096;BME280;25081;42.698;23.298;2023-07-20T05:48:38;94886.56;;;31.38;40.91
6096;BME280;25081;42.698;23.298;2023-07-20T05:50:48;94880.77;;;31.72;40.14
6096;BME280;25081;42.698;23.298;2023-07-20T05:52:59;94885.70;;;31.62;40.92
6096;BME280;25081;42.698;23.298;2023-07-20T05:55:10;94882.52;;;31.70;40.46
6096;BME280;25081;42.698;23.298;2023-07-20T05:57:21;94881.11;;;31.76;39.92
6096;BME280;25081;42.698;23.298;2023-07-20T05:59:31;94877.63;;;31.09;41.66
6096;BME280;25081;42.698;23.298;2023-07-20T06:01:42;94872.16;;;31.83;39.86
6096;BME280;25081;42.698;23.298;2023-07-20T06:03:52;94882.58;;;29.75;43.85
6096;BME280;25081;42.698;23.298;2023-07-20T06:06:04;94878.63;;;29.42;45.59
6096;BME280;25081;42.698;23.298;2023-07-20T06:08:14;94880.72;;;30.01;44.45
6096;BME280;25081;42.698;23.298;2023-07-20T06:10:24;94869.38;;;31.63;40.51
6096;BME280;25081;42.698;23.298;2023-07-20T06:12:35;94871.83;;;31.40;40.34
6096;BME280;25081;42.698;23.298;2023-07-20T06:14:45;94872.61;;;31.85;40.22
6096;BME280;25081;42.698;23.298;2023-07-20T06:16:56;94872.45;;;31.97;39.36
6096;BME280;25081;42.698;23.298;2023-07-20T06:19:07;94874.70;;;29.95;43.35
6096;BME280;25081;42.698;23.298;2023-07-20T06:21:17;94873.16;;;29.54;44.72
6096;BME280;25081;42.698;23.298;2023-07-20T06:23:28;94865.47;;;28.89;46.16
6096;BME280;25081;42.698;23.298;2023-07-20T06:25:38;94859.20;;;30.56;43.21
6096;BME280;25081;42.698;23.298;2023-07-20T06:27:50;94850.63;;;31.79;40.62
6096;BME280;25081;42.698;23.298;2023-07-20T06:30:00;94850.22;;;31.42;41.20
6096;BME280;25081;42.698;23.298;2023-07-20T06:32:11;94853.38;;;32.21;38.45
6096;BME280;25081;42.698;23.298;2023-07-20T06:34:21;94849.06;;;33.15;37.08
6096;BME280;25081;42.698;23.298;2023-07-20T06:36:31;94850.44;;;33.72;35.62
6096;BME280;25081;42.698;23.298;2023-07-20T06:38:42;94852.18;;;34.00;35.36
6096;BME280;25081;42.698;23.298;2023-07-20T06:40:52;94843.42;;;34.52;34.29
6096;BME280;25081;42.698;23.298;2023-07-20T06:43:03;94851.85;;;33.75;35.35
6096;BME280;25081;42.698;23.298;2023-07-20T06:45:13;94849.34;;;33.63;35.96
6096;BME280;25081;42.698;23.298;2023-07-20T06:47:24;94851.27;;;33.76;36.10
6096;BME280;25081;42.698;23.298;2023-07-20T06:49:34;94853.08;;;33.48;36.04
6096;BME280;25081;42.698;23.298;2023-07-20T06:51:45;94845.65;;;33.39;36.27
6096;BME280;25081;42.698;23.298;2023-07-20T06:53:56;94853.27;;;33.92;35.87
6096;BME280;25081;42.698;23.298;2023-07-20T06:56:06;94845.98;;;34.51;35.05
6096;BME280;25081;42.698;23.298;2023-07-20T06:58:17;94856.11;;;34.77;34.20
6096;BME280;25081;42.698;23.298;2023-07-20T07:00:28;94860.44;;;35.53;33.02
6096;BME280;25081;42.698;23.298;2023-07-20T07:02:57;94870.86;;;36.34;30.96
6096;BME280;25081;42.698;23.298;2023-07-20T07:05:08;94870.02;;;36.12;31.54
6096;BME280;25081;42.698;23.298;2023-07-20T07:07:19;94872.89;;;36.48;30.25
6096;BME280;25081;42.698;23.298;2023-07-20T07:09:29;94871.70;;;34.14;33.84
6096;BME280;25081;42.698;23.298;2023-07-20T07:11:40;94867.55;;;32.85;36.36
6096;BME280;25081;42.698;23.298;2023-07-20T07:13:50;94888.61;;;31.60;38.96
6096;BME280;25081;42.698;23.298;2023-07-20T07:16:01;94897.50;;;30.77;41.04
6096;BME280;25081;42.698;23.298;2023-07-20T07:18:11;94910.01;;;31.22;40.07
6096;BME280;25081;42.698;23.298;2023-07-20T07:20:22;94914.87;;;31.73;39.50
6096;BME280;25081;42.698;23.298;2023-07-20T07:22:32;94913.29;;;32.95;37.60
6096;BME280;25081;42.698;23.298;2023-07-20T07:24:42;94919.33;;;34.14;34.89
6096;BME280;25081;42.698;23.298;2023-07-20T07:26:53;94928.34;;;34.78;34.24
6096;BME280;25081;42.698;23.298;2023-07-20T07:29:03;94925.66;;;35.06;33.24
6096;BME280;25081;42.698;23.298;2023-07-20T07:31:14;94925.66;;;35.06;33.66
6096;BME280;25081;42.698;23.298;2023-07-20T07:33:25;94922.16;;;35.16;33.32
6096;BME280;25081;42.698;23.298;2023-07-20T07:35:35;94919.39;;;35.16;32.65
6096;BME280;25081;42.698;23.298;2023-07-20T07:37:46;94905.46;;;34.85;33.88
6096;BME280;25081;42.698;23.298;2023-07-20T07:39:56;94901.25;;;35.29;32.91
6096;BME280;25081;42.698;23.298;2023-07-20T07:42:07;94898.20;;;35.14;33.28
6096;BME280;25081;42.698;23.298;2023-07-20T07:44:18;94901.71;;;35.66;32.03
6096;BME280;25081;42.698;23.298;2023-07-20T07:46:29;94905.33;;;36.15;31.71
6096;BME280;25081;42.698;23.298;2023-07-20T07:48:39;94902.06;;;35.61;32.48
6096;BME280;25081;42.698;23.298;2023-07-20T07:50:50;94883.24;;;35.95;31.75
6096;BME280;25081;42.698;23.298;2023-07-20T07:53:00;94858.09;;;36.01;31.96
6096;BME280;25081;42.698;23.298;2023-07-20T07:55:11;94851.68;;;36.53;31.37
6096;BME280;25081;42.698;23.298;2023-07-20T07:57:21;94866.41;;;37.03;30.22
6096;BME280;25081;42.698;23.298;2023-07-20T07:59:32;94876.33;;;37.18;30.31
6096;BME280;25081;42.698;23.298;2023-07-20T08:01:43;94867.34;;;36.40;30.76
6096;BME280;25081;42.698;23.298;2023-07-20T08:03:53;94863.51;;;35.72;32.22
6096;BME280;25081;42.698;23.298;2023-07-20T08:06:04;94880.47;;;36.76;30.46
6096;BME280;25081;42.698;23.298;2023-07-20T08:08:14;94899.16;;;37.29;29.89
6096;BME280;25081;42.698;23.298;2023-07-20T08:10:25;94903.16;;;36.88;30.76
6096;BME280;25081;42.698;23.298;2023-07-20T08:12:35;94904.36;;;36.21;31.84
6096;BME280;25081;42.698;23.298;2023-07-20T08:14:47;94916.43;;;36.15;32.00
6096;BME280;25081;42.698;23.298;2023-07-20T08:16:57;94914.02;;;36.59;31.62
6096;BME280;25081;42.698;23.298;2023-07-20T08:19:08;94912.70;;;35.82;33.06
6096;BME280;25081;42.698;23.298;2023-07-20T08:21:18;94916.23;;;35.17;34.55
6096;BME280;25081;42.698;23.298;2023-07-20T08:23:29;94919.05;;;35.87;32.96
6096;BME280;25081;42.698;23.298;2023-07-20T08:25:39;94928.56;;;35.23;33.56
6096;BME280;25081;42.698;23.298;2023-07-20T08:27:50;94926.77;;;34.97;34.55
6096;BME280;25081;42.698;23.298;2023-07-20T08:30:00;94917.22;;;35.15;32.29
6096;BME280;25081;42.698;23.298;2023-07-20T08:32:11;94912.20;;;34.30;33.62
6096;BME280;25081;42.698;23.298;2023-07-20T08:34:21;94913.80;;;34.14;33.67
6096;BME280;25081;42.698;23.298;2023-07-20T08:36:32;94920.08;;;35.29;31.20
6096;BME280;25081;42.698;23.298;2023-07-20T08:38:42;94921.95;;;35.39;31.38
6096;BME280;25081;42.698;23.298;2023-07-20T08:40:53;94918.85;;;35.82;30.76
6096;BME280;25081;42.698;23.298;2023-07-20T08:43:04;94913.84;;;34.92;31.99
6096;BME280;25081;42.698;23.298;2023-07-20T08:45:14;94908.78;;;35.52;31.29
6096;BME280;25081;42.698;23.298;2023-07-20T08:47:24;94909.65;;;35.71;31.38
6096;BME280;25081;42.698;23.298;2023-07-20T08:49:35;94918.39;;;34.90;32.03
6096;BME280;25081;42.698;23.298;2023-07-20T08:51:46;94913.47;;;34.36;33.17
6096;BME280;25081;42.698;23.298;2023-07-20T08:53:56;94924.09;;;34.67;32.89
6096;BME280;25081;42.698;23.298;2023-07-20T08:56:07;94912.66;;;34.52;32.49
6096;BME280;25081;42.698;23.298;2023-07-20T08:58:17;94907.84;;;35.34;31.88
6096;BME280;25081;42.698;23.298;2023-07-20T09:00:28;94907.50;;;34.71;32.79
6096;BME280;25081;42.698;23.298;2023-07-20T09:02:39;94909.50;;;34.54;32.82
6096;BME280;25081;42.698;23.298;2023-07-20T09:04:49;94911.63;;;35.12;30.82
6096;BME280;25081;42.698;23.298;2023-07-20T09:07:00;94899.48;;;34.38;31.47
6096;BME280;25081;42.698;23.298;2023-07-20T09:09:10;94906.84;;;34.27;32.07
6096;BME280;25081;42.698;23.298;2023-07-20T09:11:21;94893.84;;;34.48;30.83
6096;BME280;25081;42.698;23.298;2023-07-20T09:13:33;94892.05;;;34.46;31.25
6096;BME280;25081;42.698;23.298;2023-07-20T09:15:47;94890.53;;;34.96;30.24
6096;BME280;25081;42.698;23.298;2023-07-20T09:18:00;94899.22;;;35.43;30.20
6096;BME280;25081;42.698;23.298;2023-07-20T09:20:09;94891.35;;;35.28;29.42
6096;BME280;25081;42.698;23.298;2023-07-20T09:22:20;94884.83;;;34.82;30.23
6096;BME280;25081;42.698;23.298;2023-07-20T09:24:31;94880.59;;;34.71;30.66
6096;BME280;25081;42.698;23.298;2023-07-20T09:26:42;94881.71;;;34.43;31.98
6096;BME280;25081;42.698;23.298;2023-07-20T09:28:53;94869.58;;;35.03;31.03
6096;BME280;25081;42.698;23.298;2023-07-20T09:31:05;94871.34;;;35.28;30.23
6096;BME280;25081;42.698;23.298;2023-07-20T09:33:20;94869.86;;;35.38;30.17
6096;BME280;25081;42.698;23.298;2023-07-20T09:35:31;94872.53;;;35.27;29.95
6096;BME280;25081;42.698;23.298;2023-07-20T09:37:41;94874.69;;;35.90;29.12
6096;BME280;25081;42.698;23.298;2023-07-20T09:39:53;94865.30;;;35.74;28.80
6096;BME280;25081;42.698;23.298;2023-07-20T09:42:05;94862.23;;;35.55;28.69
6096;BME280;25081;42.698;23.298;2023-07-20T09:44:16;94857.28;;;35.59;28.46
6096;BME280;25081;42.698;23.298;2023-07-20T09:46:40;94860.80;;;35.48;28.90
6096;BME280;25081;42.698;23.298;2023-07-20T09:48:37;94866.98;;;35.59;28.91
6096;BME280;25081;42.698;23.298;2023-07-20T09:50:50;94865.38;;;36.52;27.90
6096;BME280;25081;42.698;23.298;2023-07-20T09:53:01;94861.47;;;36.07;26.73
6096;BME280;25081;42.698;23.298;2023-07-20T09:55:12;94844.23;;;36.19;27.00
6096;BME280;25081;42.698;23.298;2023-07-20T09:57:23;94837.22;;;35.48;28.10
6096;BME280;25081;42.698;23.298;2023-07-20T09:59:33;94823.44;;;35.63;27.34
6096;BME280;25081;42.698;23.298;2023-07-20T10:01:44;94826.11;;;34.86;29.06
6096;BME280;25081;42.698;23.298;2023-07-20T10:03:54;94832.63;;;34.03;30.55
6096;BME280;25081;42.698;23.298;2023-07-20T10:06:06;94836.92;;;33.67;31.24
6096;BME280;25081;42.698;23.298;2023-07-20T10:08:17;94840.78;;;32.66;33.15
6096;BME280;25081;42.698;23.298;2023-07-20T10:10:27;94843.29;;;32.74;32.80
6096;BME280;25081;42.698;23.298;2023-07-20T10:12:38;94852.59;;;32.30;33.06
6096;BME280;25081;42.698;23.298;2023-07-20T10:14:59;94846.69;;;31.89;33.14
6096;BME280;25081;42.698;23.298;2023-07-20T10:17:02;94848.78;;;31.67;34.47
6096;BME280;25081;42.698;23.298;2023-07-20T10:19:13;94848.34;;;31.94;34.54
6096;BME280;25081;42.698;23.298;2023-07-20T10:21:23;94847.77;;;32.04;34.73
6096;BME280;25081;42.698;23.298;2023-07-20T10:23:33;94854.06;;;32.14;34.65
6096;BME280;25081;42.698;23.298;2023-07-20T10:25:44;94857.16;;;32.32;34.45
6096;BME280;25081;42.698;23.298;2023-07-20T10:27:54;94860.16;;;32.33;34.24
6096;BME280;25081;42.698;23.298;2023-07-20T10:30:07;94852.62;;;32.01;34.49
6096;BME280;25081;42.698;23.298;2023-07-20T10:32:17;94840.20;;;31.72;34.45
6096;BME280;25081;42.698;23.298;2023-07-20T10:34:28;94818.46;;;31.67;34.27
6096;BME280;25081;42.698;23.298;2023-07-20T10:36:45;94825.42;;;31.90;34.45
6096;BME280;25081;42.698;23.298;2023-07-20T10:38:55;94833.68;;;32.00;34.28
6096;BME280;25081;42.698;23.298;2023-07-20T10:41:06;94840.96;;;32.21;34.26
6096;BME280;25081;42.698;23.298;2023-07-20T10:43:16;94837.62;;;31.89;33.99
6096;BME280;25081;42.698;23.298;2023-07-20T10:45:42;94828.80;;;32.03;33.98
6096;BME280;25081;42.698;23.298;2023-07-20T10:47:51;94801.70;;;31.66;34.75
6096;BME280;25081;42.698;23.298;2023-07-20T10:50:02;94752.58;;;31.62;34.43
6096;BME280;25081;42.698;23.298;2023-07-20T10:52:13;94768.64;;;31.76;37.30
6096;BME280;25081;42.698;23.298;2023-07-20T10:54:36;94799.22;;;31.71;36.70
6096;BME280;25081;42.698;23.298;2023-07-20T10:56:47;94817.30;;;31.49;38.25
6096;BME280;25081;42.698;23.298;2023-07-20T10:58:59;94803.18;;;32.02;37.25
6096;BME280;25081;42.698;23.298;2023-07-20T11:01:11;94791.20;;;32.73;35.63
6096;BME280;25081;42.698;23.298;2023-07-20T11:03:29;94779.08;;;33.21;33.83
6096;BME280;25081;42.698;23.298;2023-07-20T11:05:39;94779.70;;;33.24;32.99
6096;BME280;25081;42.698;23.298;2023-07-20T11:07:50;94776.97;;;33.27;32.73
6096;BME280;25081;42.698;23.298;2023-07-20T11:10:13;94771.48;;;33.44;33.25
6096;BME280;25081;42.698;23.298;2023-07-20T11:12:23;94764.78;;;33.79;31.35
6096;BME280;25081;42.698;23.298;2023-07-20T11:14:34;94773.14;;;34.03;31.33
6096;BME280;25081;42.698;23.298;2023-07-20T11:16:45;94765.08;;;33.70;31.53
6096;BME280;25081;42.698;23.298;2023-07-20T11:18:55;94769.55;;;33.65;31.48
6096;BME280;25081;42.698;23.298;2023-07-20T11:21:07;94770.73;;;33.64;31.57
6096;BME280;25081;42.698;23.298;2023-07-20T11:23:18;94761.45;;;34.20;31.03
6096;BME280;25081;42.698;23.298;2023-07-20T11:25:36;94758.83;;;34.38;30.66
6096;BME280;25081;42.698;23.298;2023-07-20T11:27:47;94759.53;;;34.48;30.48
6096;BME280;25081;42.698;23.298;2023-07-20T11:29:58;94764.37;;;34.38;30.71
6096;BME280;25081;42.698;23.298;2023-07-20T11:32:09;94755.94;;;33.86;31.33
6096;BME280;25081;42.698;23.298;2023-07-20T11:34:20;94748.31;;;34.10;31.52
6096;BME280;25081;42.698;23.298;2023-07-20T11:36:31;94746.22;;;34.40;31.41